Time;durP1;ratioP1;P1;durP2;ratioP2;P2;SDS_P1;SDS_P2;PMS_P1;PMS_P2;Temp;Humidity;BMP_temperature;BMP_pressure;BME280_temperature;BME280_humidity;BME280_pressure;Samples;Min_cycle;Max_cycle;Signal;HPM_P1;HPM_P2
2022/06/20 00:00:51;;;;;;;2.28;0.80;;;;;;;;;;4927401;29;20058;-66
2022/06/20 00:03:22;;;;;;;8.07;1.08;;;;;;;;;;4924989;29;20055;-62
2022/06/20 00:05:48;;;;;;;2.00;0.70;;;;;;;;;;4925496;28;20055;-64
2022/06/20 00:08:16;;;;;;;3.53;0.90;;;;;;;;;;4913944;29;20056;-66
2022/06/20 00:10:45;;;;;;;2.75;0.80;;;;;;;;;;4910681;29;20051;-65
2022/06/20 00:13:16;;;;;;;1.98;0.57;;;;;;;;;;4913889;29;20047;-63
2022/06/20 00:15:42;;;;;;;2.35;0.77;;;;;;;;;;4913663;29;20079;-65
2022/06/20 00:18:11;;;;;;;4.03;0.90;;;;;;;;;;4909256;29;20054;-66
2022/06/20 00:20:37;;;;;;;2.78;0.88;;;;;;;;;;4914269;29;20126;-66
2022/06/20 00:23:04;;;;;;;3.65;1.00;;;;;;;;;;4924830;29;20063;-66
2022/06/20 00:25:30;;;;;;;3.25;0.90;;;;;;;;;;4932890;29;20066;-66
2022/06/20 00:27:57;;;;;;;1.73;0.73;;;;;;;;;;4915955;29;20071;-66
2022/06/20 00:30:25;;;;;;;4.30;0.88;;;;;;;;;;4914007;29;20089;-63
2022/06/20 00:32:52;;;;;;;1.90;0.65;;;;;;;;;;4919749;29;20066;-66
2022/06/20 00:35:19;;;;;;;3.15;0.80;;;;;;;;;;4931890;29;20063;-64
2022/06/20 00:37:46;;;;;;;6.28;0.80;;;;;;;;;;4918574;29;20060;-65
2022/06/20 00:40:19;;;;;;;4.45;0.80;;;;;;;;;;4913938;29;20059;-67
2022/06/20 00:42:46;;;;;;;3.40;1.10;;;;;;;;;;4914625;29;20052;-67
2022/06/20 00:45:13;;;;;;;4.15;0.75;;;;;;;;;;4933177;29;20078;-64
2022/06/20 00:47:42;;;;;;;2.45;0.82;;;;;;;;;;4913313;29;20055;-62
2022/06/20 00:50:13;;;;;;;7.53;0.80;;;;;;;;;;4913698;29;20089;-65
2022/06/20 00:52:41;;;;;;;0.88;0.60;;;;;;;;;;4911929;29;20078;-66
2022/06/20 00:55:13;;;;;;;2.97;0.80;;;;;;;;;;4934933;29;20070;-66
2022/06/20 00:57:42;;;;;;;1.50;0.60;;;;;;;;;;4929454;28;20136;-66
2022/06/20 01:00:11;;;;;;;1.67;0.70;;;;;;;;;;4917429;29;20055;-66
2022/06/20 01:02:40;;;;;;;2.53;0.77;;;;;;;;;;4917088;29;20226;-68
2022/06/20 01:05:11;;;;;;;4.82;0.80;;;;;;;;;;4926039;29;20109;-67
2022/06/20 01:07:41;;;;;;;3.17;0.90;;;;;;;;;;4925555;29;20115;-65
2022/06/20 01:10:09;;;;;;;4.63;0.80;;;;;;;;;;4912965;29;20056;-65
2022/06/20 01:12:40;;;;;;;1.73;0.80;;;;;;;;;;4916509;29;20047;-64
2022/06/20 01:15:16;;;;;;;2.53;0.63;;;;;;;;;;4911157;29;20051;-65
2022/06/20 01:17:43;;;;;;;4.88;0.90;;;;;;;;;;4917000;29;20055;-65
2022/06/20 01:20:20;;;;;;;3.10;0.80;;;;;;;;;;4911764;29;20054;-67
2022/06/20 01:22:51;;;;;;;3.97;0.70;;;;;;;;;;4917007;29;20052;-63
2022/06/20 01:25:24;;;;;;;5.38;0.80;;;;;;;;;;4924569;29;20307;-65
2022/06/20 01:27:53;;;;;;;10.30;0.82;;;;;;;;;;4935786;29;20055;-67
2022/06/20 01:30:20;;;;;;;;;;;;;;;;;;4918042;29;20058;-66
2022/06/20 01:32:47;;;;;;;1.65;0.70;;;;;;;;;;4934777;29;19952;-67
2022/06/20 01:37:23;;;;;;;4.10;0.90;;;;;;;;;;4928231;29;20051;-68
2022/06/20 01:38:00;;;;;;;2.42;0.80;;;;;;;;;;4936431;29;20133;-65
2022/06/20 01:40:28;;;;;;;3.47;0.82;;;;;;;;;;4930888;29;20109;-64
2022/06/20 01:42:54;;;;;;;2.55;0.70;;;;;;;;;;4937462;29;20059;-63
2022/06/20 01:48:07;;;;;;;5.88;0.77;;;;;;;;;;4936032;29;20066;-68
2022/06/20 01:50:35;;;;;;;6.97;1.10;;;;;;;;;;4921685;29;20063;-63
2022/06/20 01:53:03;;;;;;;1.77;0.65;;;;;;;;;;4916315;29;20055;-66
2022/06/20 01:55:30;;;;;;;3.60;1.03;;;;;;;;;;4910963;29;20055;-66
2022/06/20 01:58:04;;;;;;;3.10;0.93;;;;;;;;;;4917029;29;20306;-66
2022/06/20 02:00:32;;;;;;;3.97;0.75;;;;;;;;;;4912414;29;20190;-66
2022/06/20 02:03:00;;;;;;;1.38;0.70;;;;;;;;;;4951652;29;20081;-66
2022/06/20 02:05:29;;;;;;;1.65;0.60;;;;;;;;;;4928838;29;20064;-67
2022/06/20 02:07:57;;;;;;;1.80;0.70;;;;;;;;;;4935401;29;20059;-66
2022/06/20 02:10:27;;;;;;;1.92;0.80;;;;;;;;;;4930508;28;20051;-66
2022/06/20 02:12:54;;;;;;;1.35;0.50;;;;;;;;;;4935283;29;20055;-67
2022/06/20 02:15:23;;;;;;;2.10;0.80;;;;;;;;;;4919657;29;20055;-67
2022/06/20 02:17:51;;;;;;;1.02;0.60;;;;;;;;;;4928772;29;20059;-67
2022/06/20 02:20:20;;;;;;;2.70;0.70;;;;;;;;;;4932957;29;20055;-66
2022/06/20 02:22:47;;;;;;;6.88;0.80;;;;;;;;;;4914277;29;20062;-68
2022/06/20 02:25:15;;;;;;;3.08;0.90;;;;;;;;;;4919181;29;20051;-63
2022/06/20 02:27:44;;;;;;;3.00;0.70;;;;;;;;;;4929004;29;20049;-63
2022/06/20 02:30:12;;;;;;;5.85;1.13;;;;;;;;;;4934813;29;20074;-64
2022/06/20 02:32:42;;;;;;;2.10;0.68;;;;;;;;;;4928790;29;20051;-65
2022/06/20 02:35:11;;;;;;;2.35;0.65;;;;;;;;;;4934148;29;20051;-66
2022/06/20 02:37:38;;;;;;;0.95;0.50;;;;;;;;;;4922977;29;20083;-68
2022/06/20 02:40:08;;;;;;;3.80;1.08;;;;;;;;;;4916113;29;20060;-66
2022/06/20 02:42:38;;;;;;;1.30;0.70;;;;;;;;;;4910859;29;20063;-66
2022/06/20 02:45:10;;;;;;;1.42;0.70;;;;;;;;;;4917011;29;20047;-66
2022/06/20 02:47:39;;;;;;;1.95;0.80;;;;;;;;;;4911444;29;20135;-65
2022/06/20 02:50:09;;;;;;;3.03;0.77;;;;;;;;;;4915537;29;20063;-63
2022/06/20 02:52:38;;;;;;;3.60;0.82;;;;;;;;;;4909837;29;20055;-66
2022/06/20 02:55:06;;;;;;;1.80;0.60;;;;;;;;;;4916173;29;20111;-66
2022/06/20 02:57:36;;;;;;;2.45;0.50;;;;;;;;;;4913294;29;20073;-67
2022/06/20 03:00:04;;;;;;;3.40;0.70;;;;;;;;;;4934052;29;20062;-64
2022/06/20 03:02:34;;;;;;;2.75;0.90;;;;;;;;;;4928594;28;20062;-67
2022/06/20 03:05:03;;;;;;;2.20;0.75;;;;;;;;;;4933589;29;20066;-68
2022/06/20 03:07:36;;;;;;;1.38;0.60;;;;;;;;;;4933710;29;20055;-62
2022/06/20 03:10:06;;;;;;;3.67;0.80;;;;;;;;;;4915186;29;20135;-65
2022/06/20 03:12:33;;;;;;;2.08;0.70;;;;;;;;;;4915473;29;20154;-63
2022/06/20 03:15:00;;;;;;;3.97;0.80;;;;;;;;;;4908929;29;20056;-63
2022/06/20 03:17:27;;;;;;;3.50;0.82;;;;;;;;;;4914895;29;20063;-63
2022/06/20 03:19:55;;;;;;;2.13;0.65;;;;;;;;;;4909543;29;20055;-63
2022/06/20 03:22:23;;;;;;;1.77;0.60;;;;;;;;;;4915474;29;20062;-64
2022/06/20 03:24:52;;;;;;;2.20;0.50;;;;;;;;;;4921989;29;20058;-64
2022/06/20 03:27:22;;;;;;;3.85;0.80;;;;;;;;;;4934961;29;20126;-62
2022/06/20 03:29:54;;;;;;;2.75;0.77;;;;;;;;;;4925259;29;20048;-66
2022/06/20 03:32:21;;;;;;;2.42;0.80;;;;;;;;;;4930577;29;20111;-64
2022/06/20 03:34:47;;;;;;;6.05;1.00;;;;;;;;;;4918158;29;20066;-66
2022/06/20 03:37:14;;;;;;;3.75;0.70;;;;;;;;;;4916028;29;20150;-68
2022/06/20 03:39:45;;;;;;;2.50;0.88;;;;;;;;;;4921154;29;20051;-65
2022/06/20 03:42:14;;;;;;;5.32;0.95;;;;;;;;;;4914607;29;20130;-64
2022/06/20 03:44:43;;;;;;;6.68;0.98;;;;;;;;;;4915051;29;20098;-67
2022/06/20 03:47:12;;;;;;;3.67;1.02;;;;;;;;;;4934006;29;20044;-67
2022/06/20 03:49:38;;;;;;;;;;;;;;;;;;4923975;29;20056;-66
2022/06/20 03:52:07;;;;;;;5.28;0.88;;;;;;;;;;4915458;29;19974;-63
2022/06/20 03:54:36;;;;;;;2.25;0.65;;;;;;;;;;4909184;29;20147;-67
2022/06/20 03:57:06;;;;;;;1.45;0.65;;;;;;;;;;4914433;29;20056;-68
2022/06/20 03:59:39;;;;;;;4.32;1.00;;;;;;;;;;4912612;29;20147;-66
2022/06/20 04:02:08;;;;;;;6.82;0.90;;;;;;;;;;4929945;29;20094;-68
2022/06/20 04:04:38;;;;;;;3.75;0.88;;;;;;;;;;4913741;29;20142;-63
2022/06/20 04:07:08;;;;;;;5.70;0.90;;;;;;;;;;4909583;29;20139;-67
2022/06/20 04:12:28;;;;;;;2.38;0.95;;;;;;;;;;4930256;29;20142;-64
2022/06/20 04:14:58;;;;;;;1.75;0.70;;;;;;;;;;4935363;29;20062;-66
2022/06/20 04:20:25;;;;;;;3.30;0.73;;;;;;;;;;4916012;29;20146;-62
2022/06/20 04:22:53;;;;;;;5.60;1.00;;;;;;;;;;4929977;29;20063;-63
2022/06/20 04:25:22;;;;;;;5.78;1.00;;;;;;;;;;4933128;29;20055;-64
2022/06/20 04:27:51;;;;;;;5.40;1.25;;;;;;;;;;4911108;29;20130;-67
2022/06/20 04:30:21;;;;;;;2.67;0.98;;;;;;;;;;4917660;29;20093;-66
2022/06/20 04:32:49;;;;;;;7.00;1.60;;;;;;;;;;4928612;29;20138;-65
2022/06/20 04:35:18;;;;;;;29.23;1.90;;;;;;;;;;4935391;29;20062;-66
2022/06/20 04:37:49;;;;;;;2.58;0.77;;;;;;;;;;4917562;29;20060;-65
2022/06/20 04:40:21;;;;;;;2.58;1.05;;;;;;;;;;4917974;29;20122;-64
2022/06/20 04:42:50;;;;;;;5.97;1.35;;;;;;;;;;4912242;29;20083;-63
2022/06/20 04:45:20;;;;;;;5.72;1.30;;;;;;;;;;4917211;29;20056;-67
2022/06/20 04:47:50;;;;;;;4.25;1.10;;;;;;;;;;4923174;29;20051;-67
2022/06/20 04:50:19;;;;;;;1.88;0.60;;;;;;;;;;4936360;29;20055;-64
2022/06/20 04:52:46;;;;;;;2.70;0.95;;;;;;;;;;4930201;29;20109;-65
2022/06/20 04:55:15;;;;;;;9.37;1.73;;;;;;;;;;4936324;29;20075;-66
2022/06/20 04:57:41;;;;;;;8.02;1.80;;;;;;;;;;4924098;29;20043;-63
2022/06/20 05:00:10;;;;;;;4.03;1.00;;;;;;;;;;4929776;29;20061;-66
2022/06/20 05:02:37;;;;;;;6.85;1.40;;;;;;;;;;4925975;29;20052;-67
2022/06/20 05:05:06;;;;;;;4.65;1.30;;;;;;;;;;4931987;29;20047;-67
2022/06/20 05:07:35;;;;;;;2.47;1.00;;;;;;;;;;4925386;28;20058;-66
2022/06/20 05:10:05;;;;;;;1.83;0.82;;;;;;;;;;4931155;29;20146;-65
2022/06/20 05:12:36;;;;;;;3.90;1.17;;;;;;;;;;4926338;29;20058;-65
2022/06/20 05:15:08;;;;;;;5.68;1.10;;;;;;;;;;4929801;29;20051;-65
2022/06/20 05:17:36;;;;;;;4.13;1.20;;;;;;;;;;4926877;29;20150;-63
2022/06/20 05:20:09;;;;;;;7.88;1.60;;;;;;;;;;4930608;29;20051;-66
2022/06/20 05:22:39;;;;;;;3.03;1.20;;;;;;;;;;4931573;29;20047;-64
2022/06/20 05:25:08;;;;;;;3.63;1.35;;;;;;;;;;4924878;29;20051;-65
2022/06/20 05:27:40;;;;;;;6.30;1.20;;;;;;;;;;4931566;29;20055;-63
2022/06/20 05:30:08;;;;;;;14.13;1.45;;;;;;;;;;4924311;29;20070;-67
2022/06/20 05:32:37;;;;;;;4.70;1.02;;;;;;;;;;4932291;29;20058;-64
2022/06/20 05:35:08;;;;;;;2.38;1.00;;;;;;;;;;4926044;29;20066;-69
2022/06/20 05:37:37;;;;;;;6.43;1.58;;;;;;;;;;4931508;29;20055;-63
2022/06/20 05:40:11;;;;;;;5.05;1.48;;;;;;;;;;4924324;29;20075;-66
2022/06/20 05:42:38;;;;;;;7.38;1.30;;;;;;;;;;4950687;29;20055;-64
2022/06/20 05:45:13;;;;;;;2.33;1.10;;;;;;;;;;4933471;29;20055;-68
2022/06/20 05:47:40;;;;;;;3.83;1.10;;;;;;;;;;4931466;29;20060;-67
2022/06/20 05:50:17;;;;;;;3.65;0.90;;;;;;;;;;4928171;28;20048;-64
2022/06/20 05:52:44;;;;;;;4.53;1.20;;;;;;;;;;4916726;29;20059;-65
2022/06/20 05:55:18;;;;;;;4.60;1.15;;;;;;;;;;4920081;29;20058;-63
2022/06/20 05:57:47;;;;;;;2.75;1.15;;;;;;;;;;4935523;29;20055;-68
2022/06/20 06:00:17;;;;;;;3.70;1.10;;;;;;;;;;4929637;29;20125;-63
2022/06/20 06:02:45;;;;;;;3.42;1.05;;;;;;;;;;4932902;29;20067;-63
2022/06/20 06:05:17;;;;;;;2.50;0.80;;;;;;;;;;4922377;29;20040;-66
2022/06/20 06:07:46;;;;;;;4.20;1.10;;;;;;;;;;4916160;29;20062;-65
2022/06/20 06:10:23;;;;;;;4.82;1.05;;;;;;;;;;4911162;29;20103;-64
2022/06/20 06:12:53;;;;;;;4.97;1.20;;;;;;;;;;4916122;29;20098;-65
2022/06/20 06:15:23;;;;;;;3.88;1.08;;;;;;;;;;4910410;29;20051;-64
2022/06/20 06:17:51;;;;;;;6.85;1.00;;;;;;;;;;4915245;29;20059;-67
2022/06/20 06:20:20;;;;;;;1.90;0.98;;;;;;;;;;4910226;29;20110;-66
2022/06/20 06:22:48;;;;;;;1.88;0.90;;;;;;;;;;4929288;29;20048;-65
2022/06/20 06:25:22;;;;;;;1.77;0.90;;;;;;;;;;4926699;29;20043;-64
2022/06/20 06:27:49;;;;;;;3.45;1.08;;;;;;;;;;4916018;29;20051;-66
2022/06/20 06:30:20;;;;;;;4.40;1.38;;;;;;;;;;4915443;29;20062;-64
2022/06/20 06:32:50;;;;;;;6.95;1.20;;;;;;;;;;4943822;29;20039;-65
2022/06/20 06:35:21;;;;;;;7.47;1.60;;;;;;;;;;4935616;29;20066;-65
2022/06/20 06:37:52;;;;;;;8.75;1.63;;;;;;;;;;4928752;29;20063;-66
2022/06/20 06:40:22;;;;;;;2.88;0.90;;;;;;;;;;4934662;29;20065;-67
2022/06/20 06:42:49;;;;;;;3.88;1.42;;;;;;;;;;4913121;29;20079;-66
2022/06/20 06:45:21;;;;;;;1.73;0.95;;;;;;;;;;4915121;29;20059;-64
2022/06/20 06:47:50;;;;;;;7.15;1.30;;;;;;;;;;4910465;29;20044;-67
2022/06/20 06:50:27;;;;;;;2.60;1.02;;;;;;;;;;4916282;29;20062;-66
2022/06/20 06:52:55;;;;;;;9.90;1.50;;;;;;;;;;4910363;29;20059;-65
2022/06/20 06:55:24;;;;;;;12.57;1.50;;;;;;;;;;4914897;29;20062;-66
2022/06/20 06:57:53;;;;;;;6.25;1.63;;;;;;;;;;4919964;29;20062;-65
2022/06/20 07:00:19;;;;;;;;;;;;;;;;;;4934426;29;20062;-66
2022/06/20 07:02:51;;;;;;;6.18;1.58;;;;;;;;;;4944673;28;19933;-64
2022/06/20 07:05:23;;;;;;;5.43;1.58;;;;;;;;;;4932755;29;20055;-66
2022/06/20 07:07:52;;;;;;;5.57;1.63;;;;;;;;;;4920837;29;20083;-66
2022/06/20 07:10:18;;;;;;;;;;;;;;;;;;4914080;29;20138;-65
2022/06/20 07:12:46;;;;;;;4.53;1.45;;;;;;;;;;4914584;29;19934;-64
2022/06/20 07:15:14;;;;;;;7.70;1.90;;;;;;;;;;4933671;29;20047;-66
2022/06/20 07:17:41;;;;;;;;;;;;;;;;;;4923257;29;20060;-66
2022/06/20 07:20:08;;;;;;;5.65;1.30;;;;;;;;;;4914704;29;19926;-65
2022/06/20 07:22:37;;;;;;;5.78;1.30;;;;;;;;;;4921094;29;20062;-67
2022/06/20 07:25:04;;;;;;;5.22;1.50;;;;;;;;;;4914248;29;20060;-64
2022/06/20 07:27:34;;;;;;;6.65;1.42;;;;;;;;;;4915158;29;20062;-65
2022/06/20 07:30:05;;;;;;;4.63;1.30;;;;;;;;;;4925332;29;20058;-65
2022/06/20 07:32:35;;;;;;;4.93;1.27;;;;;;;;;;4931223;29;20055;-64
2022/06/20 07:35:03;;;;;;;3.60;1.15;;;;;;;;;;4924681;29;20085;-65
2022/06/20 07:37:31;;;;;;;2.08;0.88;;;;;;;;;;4917326;29;20055;-65
2022/06/20 07:40:00;;;;;;;7.28;1.80;;;;;;;;;;4926545;29;20055;-67
2022/06/20 07:42:30;;;;;;;4.75;1.73;;;;;;;;;;4932936;29;20089;-66
2022/06/20 07:44:58;;;;;;;4.05;1.15;;;;;;;;;;4914602;29;20454;-65
2022/06/20 07:47:29;;;;;;;8.80;1.65;;;;;;;;;;4901833;29;20070;-67
2022/06/20 07:49:58;;;;;;;7.47;1.77;;;;;;;;;;4920129;29;20048;-66
2022/06/20 07:52:29;;;;;;;3.80;1.35;;;;;;;;;;4932175;29;20047;-65
2022/06/20 07:54:59;;;;;;;6.25;1.60;;;;;;;;;;4918008;29;20052;-65
2022/06/20 07:57:29;;;;;;;8.68;1.50;;;;;;;;;;4912184;29;20063;-65
2022/06/20 07:59:58;;;;;;;5.22;1.50;;;;;;;;;;4908188;29;20055;-65
2022/06/20 08:02:28;;;;;;;8.65;1.65;;;;;;;;;;4913277;29;20056;-65
2022/06/20 08:04:57;;;;;;;4.72;1.50;;;;;;;;;;4914461;29;20047;-65
2022/06/20 08:07:26;;;;;;;8.63;1.33;;;;;;;;;;4924225;29;20068;-65
2022/06/20 08:09:52;;;;;;;;;;;;;;;;;;4922900;29;20140;-65
2022/06/20 08:12:21;;;;;;;7.47;1.75;;;;;;;;;;4912873;29;19933;-65
2022/06/20 08:14:47;;;;;;;;;;;;;;;;;;4910230;29;20059;-65
2022/06/20 08:17:15;;;;;;;4.80;1.52;;;;;;;;;;4948171;29;19927;-65
2022/06/20 08:19:45;;;;;;;3.90;1.35;;;;;;;;;;4926426;29;20062;-65
2022/06/20 08:22:13;;;;;;;6.75;1.38;;;;;;;;;;4923005;29;20055;-65
2022/06/20 08:24:43;;;;;;;7.22;1.35;;;;;;;;;;4931769;29;20122;-66
2022/06/20 08:27:11;;;;;;;5.53;1.30;;;;;;;;;;4926753;29;20055;-65
2022/06/20 08:29:40;;;;;;;4.53;1.10;;;;;;;;;;4933342;29;20051;-65
2022/06/20 08:32:11;;;;;;;3.55;1.35;;;;;;;;;;4911663;29;20138;-65
2022/06/20 08:34:41;;;;;;;8.73;1.35;;;;;;;;;;4912867;29;20056;-66
2022/06/20 08:37:11;;;;;;;3.85;1.27;;;;;;;;;;4922674;29;20062;-66
2022/06/20 08:39:41;;;;;;;4.53;1.50;;;;;;;;;;4912777;29;20051;-67
2022/06/20 08:42:17;;;;;;;7.05;1.55;;;;;;;;;;4908588;29;20078;-64
2022/06/20 08:45:01;;;;;;;7.80;1.55;;;;;;;;;;4913754;29;20056;-65
2022/06/20 08:47:43;;;;;;;7.70;1.63;;;;;;;;;;4913260;29;20063;-66
2022/06/20 08:50:30;;;;;;;7.18;1.50;;;;;;;;;;4933398;29;20047;-66
2022/06/20 08:53:15;;;;;;;11.18;2.10;;;;;;;;;;4910146;29;20119;-66
2022/06/20 08:55:46;;;;;;;5.90;1.40;;;;;;;;;;4913520;29;20058;-66
2022/06/20 08:58:17;;;;;;;7.38;1.55;;;;;;;;;;4908366;29;20051;-66
2022/06/20 09:00:47;;;;;;;7.72;1.50;;;;;;;;;;4913253;29;20062;-68
2022/06/20 09:03:31;;;;;;;8.48;1.40;;;;;;;;;;4907995;29;20110;-65
2022/06/20 09:06:07;;;;;;;5.72;1.60;;;;;;;;;;4913197;29;20064;-66
2022/06/20 09:08:51;;;;;;;3.72;1.38;;;;;;;;;;4925638;29;20055;-65
2022/06/20 09:11:23;;;;;;;3.88;1.33;;;;;;;;;;4949531;29;20054;-66
2022/06/20 09:14:01;;;;;;;4.60;1.60;;;;;;;;;;4911360;29;20111;-66
2022/06/20 09:16:34;;;;;;;6.95;1.75;;;;;;;;;;4918171;29;20059;-66
2022/06/20 09:19:08;;;;;;;5.28;1.60;;;;;;;;;;4928655;29;20059;-66
2022/06/20 09:21:41;;;;;;;5.25;1.10;;;;;;;;;;4935203;29;20047;-66
2022/06/20 09:24:14;;;;;;;7.63;1.80;;;;;;;;;;4913496;29;20051;-67
2022/06/20 09:26:44;;;;;;;8.85;1.70;;;;;;;;;;4909063;29;20055;-66
2022/06/20 09:29:32;;;;;;;3.25;1.48;;;;;;;;;;4911882;29;20113;-67
2022/06/20 09:32:17;;;;;;;5.95;1.40;;;;;;;;;;4918277;29;20070;-66
2022/06/20 09:35:00;;;;;;;10.30;1.77;;;;;;;;;;4912513;29;20056;-66
2022/06/20 09:37:36;;;;;;;6.93;1.60;;;;;;;;;;4916002;29;20048;-67
2022/06/20 09:40:10;;;;;;;4.53;1.23;;;;;;;;;;4928663;29;20051;-65
2022/06/20 09:42:41;;;;;;;3.88;1.30;;;;;;;;;;4935463;29;20062;-65
2022/06/20 09:45:12;;;;;;;5.93;1.42;;;;;;;;;;4912898;29;20051;-65
2022/06/20 09:47:43;;;;;;;5.10;1.45;;;;;;;;;;4916222;29;20055;-65
2022/06/20 09:50:24;;;;;;;9.45;1.42;;;;;;;;;;4927500;29;20161;-66
2022/06/20 09:53:06;;;;;;;7.65;1.50;;;;;;;;;;4932809;29;20051;-67
2022/06/20 09:55:38;;;;;;;8.52;1.90;;;;;;;;;;4921436;29;20056;-65
2022/06/20 09:58:09;;;;;;;4.75;1.20;;;;;;;;;;4931736;29;20071;-65
2022/06/20 10:00:40;;;;;;;9.10;1.55;;;;;;;;;;4913965;29;20044;-65
2022/06/20 10:03:12;;;;;;;3.95;1.15;;;;;;;;;;4915682;29;20059;-65
2022/06/20 10:05:42;;;;;;;7.28;1.40;;;;;;;;;;4925252;29;20114;-65
2022/06/20 10:08:17;;;;;;;5.25;1.25;;;;;;;;;;4934214;29;20051;-65
2022/06/20 10:10:46;;;;;;;6.90;1.50;;;;;;;;;;4928242;29;20059;-65
2022/06/20 10:13:17;;;;;;;5.78;1.38;;;;;;;;;;4933996;29;20098;-66
2022/06/20 10:15:46;;;;;;;5.28;1.40;;;;;;;;;;4928705;29;20065;-65
2022/06/20 10:18:18;;;;;;;5.72;1.40;;;;;;;;;;4934005;29;20061;-67
2022/06/20 10:20:47;;;;;;;10.32;1.27;;;;;;;;;;4917856;29;20047;-65
2022/06/20 10:23:21;;;;;;;8.98;1.80;;;;;;;;;;4932279;29;20071;-65
2022/06/20 10:25:56;;;;;;;7.53;1.50;;;;;;;;;;4927007;29;20139;-65
2022/06/20 10:28:29;;;;;;;5.35;1.15;;;;;;;;;;4934053;29;20078;-65
2022/06/20 10:31:00;;;;;;;3.60;1.05;;;;;;;;;;4919402;29;20055;-65
2022/06/20 10:33:32;;;;;;;2.88;1.13;;;;;;;;;;4914429;29;20075;-65
2022/06/20 10:36:05;;;;;;;2.58;1.00;;;;;;;;;;4910547;29;20145;-67
2022/06/20 10:38:39;;;;;;;3.35;1.27;;;;;;;;;;4929355;29;20063;-65
2022/06/20 10:41:07;;;;;;;1.77;0.88;;;;;;;;;;4924674;29;20058;-67
2022/06/20 10:43:43;;;;;;;7.07;1.10;;;;;;;;;;4931778;29;20058;-69
2022/06/20 10:46:12;;;;;;;5.05;1.27;;;;;;;;;;4916654;29;20179;-65
2022/06/20 10:48:51;;;;;;;3.03;0.90;;;;;;;;;;4933855;29;20047;-65
2022/06/20 10:51:23;;;;;;;2.45;0.85;;;;;;;;;;4921398;29;20052;-66
2022/06/20 10:53:57;;;;;;;6.82;1.10;;;;;;;;;;4914602;29;20140;-65
2022/06/20 10:56:29;;;;;;;5.15;1.30;;;;;;;;;;4914566;29;20062;-65
2022/06/20 10:59:16;;;;;;;3.55;0.82;;;;;;;;;;4934726;29;20058;-64
2022/06/20 11:01:47;;;;;;;3.90;1.10;;;;;;;;;;4921885;29;20055;-65
2022/06/20 11:04:28;;;;;;;4.32;1.10;;;;;;;;;;4934559;29;20059;-65
2022/06/20 11:07:01;;;;;;;6.43;1.25;;;;;;;;;;4928356;29;20051;-66
2022/06/20 11:09:34;;;;;;;5.18;1.30;;;;;;;;;;4934024;29;20055;-66
2022/06/20 11:12:05;;;;;;;4.28;1.20;;;;;;;;;;4929413;29;20043;-70
2022/06/20 11:14:37;;;;;;;7.80;1.27;;;;;;;;;;4933923;29;20055;-65
2022/06/20 11:17:05;;;;;;;6.13;1.50;;;;;;;;;;4924640;29;20123;-65
2022/06/20 11:19:32;;;;;;;;;;;;;;;;;;4915042;29;20060;-69
2022/06/20 11:22:03;;;;;;;4.50;1.17;;;;;;;;;;4916568;28;19926;-65
2022/06/20 11:24:37;;;;;;;8.75;1.50;;;;;;;;;;4932386;29;20051;-65
2022/06/20 11:27:10;;;;;;;6.90;1.40;;;;;;;;;;4926686;29;20141;-66
2022/06/20 11:29:46;;;;;;;7.20;1.15;;;;;;;;;;4915180;29;20067;-65
2022/06/20 11:32:19;;;;;;;5.72;1.48;;;;;;;;;;4908369;29;20051;-66
2022/06/20 11:34:53;;;;;;;4.63;1.20;;;;;;;;;;4913867;29;20043;-67
2022/06/20 11:37:27;;;;;;;3.10;0.98;;;;;;;;;;4912195;29;20063;-71
2022/06/20 11:40:14;;;;;;;4.32;1.30;;;;;;;;;;4914427;29;20062;-65
2022/06/20 11:42:51;;;;;;;2.45;1.00;;;;;;;;;;4909552;29;20071;-66
2022/06/20 11:45:35;;;;;;;4.15;1.10;;;;;;;;;;4927854;29;20054;-65
2022/06/20 11:48:09;;;;;;;2.30;0.98;;;;;;;;;;4918013;29;20059;-69
2022/06/20 11:50:39;;;;;;;4.05;1.02;;;;;;;;;;4914094;29;20075;-67
2022/06/20 11:53:11;;;;;;;9.70;1.20;;;;;;;;;;4910078;28;20052;-64
2022/06/20 11:55:42;;;;;;;3.80;1.08;;;;;;;;;;4914102;29;20048;-66
2022/06/20 11:58:13;;;;;;;3.67;1.10;;;;;;;;;;4908142;29;20060;-65
2022/06/20 12:00:42;;;;;;;4.38;0.90;;;;;;;;;;4903635;29;20111;-69
2022/06/20 12:03:14;;;;;;;9.00;1.35;;;;;;;;;;4917902;29;20044;-65
2022/06/20 12:05:44;;;;;;;3.45;1.00;;;;;;;;;;4921855;29;20051;-71
2022/06/20 12:08:19;;;;;;;4.47;1.23;;;;;;;;;;4932896;29;20163;-68
2022/06/20 12:10:50;;;;;;;6.90;1.10;;;;;;;;;;4927214;29;20057;-68
2022/06/20 12:13:20;;;;;;;5.70;1.17;;;;;;;;;;4931674;29;20062;-66
2022/06/20 12:15:52;;;;;;;3.38;1.02;;;;;;;;;;4925843;29;20102;-64
2022/06/20 12:18:27;;;;;;;3.53;1.10;;;;;;;;;;4934200;29;20047;-63
2022/06/20 12:23:42;;;;;;;4.35;1.20;;;;;;;;;;4932198;29;20055;-63
2022/06/20 12:26:12;;;;;;;8.20;1.40;;;;;;;;;;4925618;29;20059;-67
2022/06/20 12:28:41;;;;;;;7.35;1.55;;;;;;;;;;4932765;29;20062;-67
2022/06/20 12:31:18;;;;;;;3.72;1.02;;;;;;;;;;4919437;29;20110;-62
2022/06/20 12:33:48;;;;;;;2.45;0.95;;;;;;;;;;4931776;29;20091;-67
2022/06/20 12:36:24;;;;;;;5.22;1.30;;;;;;;;;;4915011;29;20083;-68
2022/06/20 12:38:56;;;;;;;3.55;1.10;;;;;;;;;;4918017;29;20063;-73
2022/06/20 12:41:25;;;;;;;6.57;1.20;;;;;;;;;;4908662;29;20055;-65
2022/06/20 12:43:58;;;;;;;3.03;1.10;;;;;;;;;;4912804;29;20055;-63
2022/06/20 12:46:31;;;;;;;3.55;1.00;;;;;;;;;;4908677;29;20119;-65
2022/06/20 12:49:22;;;;;;;8.52;1.23;;;;;;;;;;4914582;29;20066;-65
2022/06/20 12:51:53;;;;;;;5.88;1.10;;;;;;;;;;4914566;29;20131;-70
2022/06/20 12:54:27;;;;;;;5.07;1.02;;;;;;;;;;4935446;29;20138;-66
2022/06/20 12:57:02;;;;;;;5.70;1.10;;;;;;;;;;4927056;29;20062;-64
2022/06/20 12:59:59;;;;;;;3.00;0.88;;;;;;;;;;4932540;29;20051;-70
2022/06/20 13:02:35;;;;;;;2.90;0.93;;;;;;;;;;4852645;29;20124;-67
2022/06/20 13:05:20;;;;;;;4.20;1.27;;;;;;;;;;4912907;29;20059;-63
2022/06/20 13:07:55;;;;;;;3.30;1.00;;;;;;;;;;4923298;29;20115;-63
2022/06/20 13:10:34;;;;;;;5.07;1.30;;;;;;;;;;4932227;29;20063;-68
2022/06/20 13:13:11;;;;;;;3.70;1.05;;;;;;;;;;4924452;29;20060;-67
2022/06/20 13:15:44;;;;;;;3.88;1.25;;;;;;;;;;4932502;29;20138;-65
2022/06/20 13:18:27;;;;;;;3.88;1.10;;;;;;;;;;4911296;29;20056;-66
2022/06/20 13:20:59;;;;;;;6.93;1.40;;;;;;;;;;4913082;29;20059;-68
2022/06/20 13:23:36;;;;;;;4.65;1.30;;;;;;;;;;4921899;29;20047;-63
2022/06/20 13:26:06;;;;;;;2.58;0.95;;;;;;;;;;4931987;29;20056;-66
2022/06/20 13:28:38;;;;;;;6.50;1.70;;;;;;;;;;4903112;29;20058;-67
2022/06/20 13:31:11;;;;;;;6.25;1.50;;;;;;;;;;4913226;29;20126;-64
2022/06/20 13:33:42;;;;;;;3.88;1.10;;;;;;;;;;4892368;29;20056;-66
2022/06/20 13:36:24;;;;;;;3.83;1.13;;;;;;;;;;4913079;29;20056;-67
2022/06/20 13:38:53;;;;;;;6.82;1.42;;;;;;;;;;4921668;29;20056;-63
2022/06/20 13:41:24;;;;;;;7.43;1.40;;;;;;;;;;4931570;29;20139;-67
2022/06/20 13:43:58;;;;;;;6.03;1.08;;;;;;;;;;4913723;29;20056;-64
2022/06/20 13:46:27;;;;;;;3.30;0.98;;;;;;;;;;4913168;29;20060;-65
2022/06/20 13:48:57;;;;;;;2.35;1.20;;;;;;;;;;4918879;29;20055;-69
2022/06/20 13:51:28;;;;;;;2.67;1.15;;;;;;;;;;4931466;29;20052;-67
2022/06/20 13:53:58;;;;;;;4.25;1.42;;;;;;;;;;4916275;29;20060;-67
2022/06/20 13:56:26;;;;;;;4.20;1.50;;;;;;;;;;4912838;29;20143;-63
2022/06/20 13:58:57;;;;;;;5.28;1.33;;;;;;;;;;4907539;29;20052;-64
2022/06/20 14:01:33;;;;;;;7.40;1.50;;;;;;;;;;4912541;29;20058;-66
2022/06/20 14:04:06;;;;;;;5.43;1.35;;;;;;;;;;4910273;29;20059;-64
2022/06/20 14:06:41;;;;;;;6.88;1.58;;;;;;;;;;4916310;29;20063;-64
2022/06/20 14:09:15;;;;;;;6.53;1.30;;;;;;;;;;4918167;29;20055;-66
2022/06/20 14:11:44;;;;;;;8.43;1.48;;;;;;;;;;4922344;29;20383;-66
2022/06/20 14:14:18;;;;;;;6.70;1.58;;;;;;;;;;4915358;29;20047;-68
2022/06/20 14:16:47;;;;;;;5.95;1.40;;;;;;;;;;4934580;29;20067;-68
2022/06/20 14:19:15;;;;;;;6.30;1.60;;;;;;;;;;4928597;29;20066;-66
2022/06/20 14:21:45;;;;;;;6.97;1.25;;;;;;;;;;4934270;29;20059;-64
2022/06/20 14:24:17;;;;;;;4.50;1.60;;;;;;;;;;4926268;29;20054;-67
2022/06/20 14:26:45;;;;;;;4.75;1.38;;;;;;;;;;4933276;29;20138;-65
2022/06/20 14:29:19;;;;;;;5.18;1.35;;;;;;;;;;4928326;29;20138;-64
2022/06/20 14:31:50;;;;;;;7.10;1.30;;;;;;;;;;4933305;29;20172;-64
2022/06/20 14:34:22;;;;;;;2.85;1.10;;;;;;;;;;4911419;29;20059;-65
2022/06/20 14:36:52;;;;;;;4.43;1.20;;;;;;;;;;4933928;29;20082;-65
2022/06/20 14:39:24;;;;;;;7.43;1.30;;;;;;;;;;4915916;29;20055;-65
2022/06/20 14:41:59;;;;;;;6.88;1.40;;;;;;;;;;4933672;29;20051;-66
2022/06/20 14:44:34;;;;;;;3.00;1.23;;;;;;;;;;4934561;29;20063;-65
2022/06/20 14:47:03;;;;;;;6.85;1.30;;;;;;;;;;4927761;29;20143;-69
2022/06/20 14:49:34;;;;;;;8.77;1.80;;;;;;;;;;4933939;29;20079;-65
2022/06/20 14:52:07;;;;;;;6.97;1.70;;;;;;;;;;4927130;29;20051;-64
2022/06/20 14:54:36;;;;;;;3.58;1.17;;;;;;;;;;4923621;29;20059;-65
2022/06/20 14:57:08;;;;;;;6.55;1.55;;;;;;;;;;4926028;29;20046;-65
2022/06/20 14:59:45;;;;;;;6.75;1.38;;;;;;;;;;4934431;29;20055;-65
2022/06/20 15:02:19;;;;;;;3.30;1.10;;;;;;;;;;4913916;29;20150;-64
2022/06/20 15:04:47;;;;;;;5.25;1.20;;;;;;;;;;4915743;29;20052;-64
2022/06/20 15:07:16;;;;;;;3.38;1.00;;;;;;;;;;4912068;29;20048;-63
2022/06/20 15:09:47;;;;;;;6.75;1.25;;;;;;;;;;4915727;29;20166;-66
2022/06/20 15:12:27;;;;;;;4.93;1.35;;;;;;;;;;4914520;29;20054;-67
2022/06/20 15:14:58;;;;;;;2.05;1.10;;;;;;;;;;4933677;29;20066;-65
2022/06/20 15:17:27;;;;;;;2.65;1.08;;;;;;;;;;4915505;29;20078;-66
2022/06/20 15:19:56;;;;;;;5.03;1.17;;;;;;;;;;4914922;29;20083;-68